createdAt,value
2018-12-10T00:00:46.674Z,7.00
2018-12-10T00:03:20.664Z,7.10
2018-12-10T00:05:49.218Z,7.10
2018-12-10T00:08:17.641Z,7.10
2018-12-10T00:10:46.083Z,7.10
2018-12-10T00:13:14.509Z,7.10
2018-12-10T00:15:42.923Z,7.20
2018-12-10T00:18:11.327Z,7.10
2018-12-10T00:20:39.744Z,7.20
2018-12-10T00:23:08.287Z,7.10
2018-12-10T00:25:36.782Z,7.10
2018-12-10T00:28:05.179Z,7.10
2018-12-10T00:30:33.587Z,7.10
2018-12-10T00:33:02.022Z,7.10
2018-12-10T00:35:30.414Z,7.20
2018-12-10T00:37:58.861Z,7.10
2018-12-10T00:40:27.259Z,7.10
2018-12-10T00:42:55.670Z,7.10
2018-12-10T00:45:24.108Z,7.10
2018-12-10T00:47:52.527Z,7.10
2018-12-10T00:50:20.947Z,7.10
2018-12-10T00:52:49.382Z,7.20
2018-12-10T00:55:17.803Z,7.10
2018-12-10T00:57:46.256Z,7.20
2018-12-10T01:00:14.668Z,7.30
2018-12-10T01:02:43.075Z,7.20
2018-12-10T01:05:11.475Z,7.10
2018-12-10T01:07:39.901Z,7.10
2018-12-10T01:10:08.514Z,7.10
2018-12-10T01:12:37.024Z,7.10
2018-12-10T01:15:05.572Z,7.10
2018-12-10T01:17:34.016Z,7.10
2018-12-10T01:20:02.470Z,7.10
2018-12-10T01:22:30.969Z,7.10
2018-12-10T01:24:59.363Z,7.00
2018-12-10T01:27:27.817Z,6.90
2018-12-10T01:29:56.264Z,6.80
2018-12-10T01:32:24.681Z,6.80
2018-12-10T01:34:53.171Z,6.70
2018-12-10T01:37:21.584Z,6.70
2018-12-10T01:39:50.035Z,6.60
2018-12-10T01:42:18.698Z,6.40
2018-12-10T01:44:47.120Z,6.30
2018-12-10T01:47:15.770Z,6.30
2018-12-10T01:49:44.210Z,6.30
2018-12-10T01:52:12.608Z,6.30
2018-12-10T01:54:41.031Z,6.30
2018-12-10T01:57:09.419Z,6.30
2018-12-10T01:59:37.815Z,6.20
2018-12-10T02:02:06.219Z,6.30
2018-12-10T02:04:34.628Z,6.30
2018-12-10T02:07:03.046Z,6.40
2018-12-10T02:09:31.464Z,6.40
2018-12-10T02:12:00.007Z,6.50
2018-12-10T02:14:28.477Z,6.50
2018-12-10T02:16:56.879Z,6.50
2018-12-10T02:19:25.420Z,6.40
2018-12-10T02:21:53.911Z,6.40
2018-12-10T02:24:22.344Z,6.40
2018-12-10T02:26:50.735Z,6.40
2018-12-10T02:29:19.135Z,6.40
2018-12-10T02:31:47.548Z,6.50
2018-12-10T02:34:15.964Z,6.40
2018-12-10T02:36:44.348Z,6.40
2018-12-10T02:39:12.775Z,6.40
2018-12-10T02:41:41.301Z,6.40
2018-12-10T02:44:09.767Z,6.40
2018-12-10T02:46:38.183Z,6.30
2018-12-10T02:49:06.608Z,6.30
2018-12-10T02:51:35.001Z,6.20
2018-12-10T02:54:03.526Z,6.20
2018-12-10T02:56:31.938Z,6.20
2018-12-10T02:59:00.350Z,6.20
2018-12-10T03:01:28.793Z,6.30
2018-12-10T03:03:57.292Z,6.30
2018-12-10T03:06:25.789Z,6.30
2018-12-10T03:08:54.208Z,6.20
2018-12-10T03:11:22.614Z,6.10
2018-12-10T03:13:51.034Z,6.20
2018-12-10T03:16:19.443Z,6.30
2018-12-10T03:18:47.848Z,6.30
2018-12-10T03:21:16.272Z,6.30
2018-12-10T03:23:44.699Z,6.30
2018-12-10T03:26:13.217Z,6.30
2018-12-10T03:28:41.606Z,6.30
2018-12-10T03:31:09.992Z,6.30
2018-12-10T03:33:38.459Z,6.30
2018-12-10T03:36:06.919Z,6.30
2018-12-10T03:38:35.383Z,6.40
2018-12-10T03:41:03.917Z,6.40
2018-12-10T03:43:32.543Z,6.40
2018-12-10T03:46:00.965Z,6.40
2018-12-10T03:48:29.390Z,6.40
2018-12-10T03:50:57.819Z,6.30
2018-12-10T03:53:26.318Z,6.30
2018-12-10T03:55:54.871Z,6.20
2018-12-10T03:58:23.402Z,6.00
2018-12-10T04:00:51.803Z,5.90
2018-12-10T04:03:20.202Z,5.80
2018-12-10T04:05:48.627Z,5.80
2018-12-10T04:08:17.036Z,5.70
2018-12-10T04:10:45.516Z,5.70
2018-12-10T04:13:13.923Z,5.60
2018-12-10T04:15:42.448Z,5.60
2018-12-10T04:18:10.872Z,5.60
2018-12-10T04:20:39.308Z,5.60
2018-12-10T04:23:07.748Z,5.70
2018-12-10T04:25:36.128Z,5.70
2018-12-10T04:28:04.559Z,5.80
2018-12-10T04:30:32.979Z,5.80
2018-12-10T04:33:01.392Z,5.90
2018-12-10T04:35:29.804Z,5.90
2018-12-10T04:37:58.218Z,6.00
2018-12-10T04:40:26.628Z,6.00
2018-12-10T04:42:55.098Z,6.00
2018-12-10T04:45:23.492Z,6.10
2018-12-10T04:47:51.945Z,6.10
2018-12-10T04:50:20.358Z,6.10
2018-12-10T04:52:48.746Z,6.10
2018-12-10T04:55:17.145Z,6.00
2018-12-10T04:57:45.543Z,6.00
2018-12-10T05:00:13.927Z,5.90
2018-12-10T05:02:42.344Z,5.90
2018-12-10T05:05:10.739Z,6.00
2018-12-10T05:07:39.164Z,6.00
2018-12-10T05:10:07.690Z,5.90
2018-12-10T05:12:36.225Z,5.90
2018-12-10T05:15:04.879Z,5.90
2018-12-10T05:17:33.394Z,5.80
2018-12-10T05:20:01.795Z,5.80
2018-12-10T05:22:30.200Z,5.80
2018-12-10T05:24:58.582Z,5.70
2018-12-10T05:27:26.979Z,5.70
2018-12-10T05:29:55.391Z,5.60
2018-12-10T05:32:23.798Z,5.60
2018-12-10T05:34:52.205Z,5.60
2018-12-10T05:37:20.612Z,5.70
2018-12-10T05:39:49.034Z,5.70
2018-12-10T05:42:17.446Z,5.80
2018-12-10T05:44:45.855Z,5.80
2018-12-10T05:47:14.267Z,5.90
2018-12-10T05:49:42.736Z,5.90
2018-12-10T05:52:11.216Z,5.90
2018-12-10T05:54:39.608Z,5.90
2018-12-10T05:57:08.039Z,5.80
2018-12-10T05:59:36.447Z,5.80
2018-12-10T06:02:04.844Z,5.70
2018-12-10T06:04:33.246Z,5.60
2018-12-10T06:07:01.635Z,5.60
2018-12-10T06:09:30.037Z,5.60
2018-12-10T06:11:58.459Z,5.70
2018-12-10T06:14:26.905Z,5.80
2018-12-10T06:16:55.317Z,5.80
2018-12-10T06:19:23.720Z,5.90
2018-12-10T06:21:52.122Z,5.90
2018-12-10T06:24:20.524Z,5.90
2018-12-10T06:26:48.938Z,5.90
2018-12-10T06:29:17.348Z,5.90
2018-12-10T06:31:45.730Z,5.80
2018-12-10T06:34:14.172Z,5.80
2018-12-10T06:36:42.600Z,5.80
2018-12-10T06:39:11.024Z,5.80
2018-12-10T06:41:39.426Z,5.80
2018-12-10T06:44:07.818Z,5.80
2018-12-10T06:46:36.225Z,5.80
2018-12-10T06:49:04.643Z,5.70
2018-12-10T06:51:33.051Z,5.70
2018-12-10T06:54:01.475Z,5.70
2018-12-10T06:56:29.866Z,5.70
2018-12-10T06:58:58.285Z,5.70
2018-12-10T07:01:27.030Z,5.70
2018-12-10T07:03:55.608Z,5.70
2018-12-10T07:06:24.143Z,5.60
2018-12-10T07:08:52.588Z,5.60
2018-12-10T07:11:21.026Z,5.60
2018-12-10T07:13:49.446Z,5.60
2018-12-10T07:16:17.852Z,5.60
2018-12-10T07:18:46.264Z,5.60
2018-12-10T07:21:14.754Z,5.50
2018-12-10T07:23:43.185Z,5.50
2018-12-10T07:26:11.596Z,5.60
2018-12-10T07:28:40.030Z,5.70
2018-12-10T07:31:08.424Z,5.70
2018-12-10T07:33:36.846Z,5.70
2018-12-10T07:36:05.420Z,5.80
2018-12-10T07:38:33.834Z,5.80
2018-12-10T07:41:02.265Z,5.90
2018-12-10T07:43:31.244Z,5.90
2018-12-10T07:45:59.676Z,6.00
2018-12-10T07:48:28.112Z,7.70
2018-12-10T07:50:56.612Z,7.90
2018-12-10T07:53:25.004Z,7.20
2018-12-10T07:55:53.463Z,6.70
2018-12-10T07:58:21.843Z,6.50
2018-12-10T08:00:50.303Z,6.30
2018-12-10T08:03:18.704Z,6.10
2018-12-10T08:05:47.134Z,6.10
2018-12-10T08:08:15.598Z,6.00
2018-12-10T08:10:44.075Z,5.90
2018-12-10T08:13:12.492Z,5.90
2018-12-10T08:15:40.912Z,5.90
2018-12-10T08:18:09.290Z,5.90
2018-12-10T08:20:37.697Z,5.90
2018-12-10T08:23:06.199Z,5.90
2018-12-10T08:25:34.630Z,6.00
2018-12-10T08:28:03.044Z,6.10
2018-12-10T08:30:31.506Z,6.30
2018-12-10T08:33:00.009Z,6.50
2018-12-10T08:35:28.411Z,6.50
2018-12-10T08:37:56.806Z,6.60
2018-12-10T08:40:25.249Z,6.40
2018-12-10T08:42:53.756Z,6.30
2018-12-10T08:45:22.315Z,6.20
2018-12-10T08:47:50.714Z,6.20
2018-12-10T08:50:19.396Z,6.30
2018-12-10T08:52:47.789Z,6.30
2018-12-10T08:55:16.345Z,6.40
2018-12-10T08:57:44.758Z,6.50
2018-12-10T09:00:13.179Z,6.60
2018-12-10T09:02:41.659Z,6.70
2018-12-10T09:05:10.092Z,6.70
2018-12-10T09:07:38.475Z,6.80
2018-12-10T09:10:07.889Z,6.70
2018-12-10T09:12:36.346Z,6.60
2018-12-10T09:15:05.772Z,6.60
2018-12-10T09:17:34.194Z,6.60
2018-12-10T09:20:02.656Z,6.70
2018-12-10T09:22:31.127Z,6.80
2018-12-10T09:24:59.523Z,7.00
2018-12-10T09:27:28.033Z,7.10
2018-12-10T09:29:56.457Z,7.30
2018-12-10T09:32:24.874Z,7.50
2018-12-10T09:34:53.276Z,7.50
2018-12-10T09:37:21.690Z,7.40
2018-12-10T09:39:50.092Z,7.40
2018-12-10T09:42:18.500Z,7.30
2018-12-10T09:44:46.905Z,7.20
2018-12-10T09:47:15.571Z,7.60
2018-12-10T09:49:43.959Z,9.30
2018-12-10T09:52:12.378Z,10.80
2018-12-10T09:54:40.903Z,11.20
2018-12-10T09:57:09.344Z,11.70
2018-12-10T09:59:38.010Z,11.30
2018-12-10T10:02:12.226Z,10.80
2018-12-10T10:04:37.146Z,10.20
2018-12-10T10:07:05.762Z,10.30
2018-12-10T10:09:34.165Z,9.90
2018-12-10T10:12:02.584Z,9.40
2018-12-10T10:14:31.162Z,9.20
2018-12-10T10:16:59.629Z,8.80
2018-12-10T10:19:28.059Z,8.70
2018-12-10T10:21:56.484Z,8.60
2018-12-10T10:24:24.914Z,8.80
2018-12-10T10:26:53.318Z,8.80
2018-12-10T10:29:21.732Z,9.30
2018-12-10T10:31:50.193Z,9.50
2018-12-10T10:34:18.616Z,9.30
2018-12-10T10:36:47.103Z,9.50
2018-12-10T10:39:15.682Z,10.90
2018-12-10T10:41:44.219Z,12.50
2018-12-10T10:44:12.637Z,13.60
2018-12-10T10:46:41.027Z,14.40
2018-12-10T10:49:09.476Z,14.60
2018-12-10T10:51:37.908Z,13.40
2018-12-10T10:54:06.503Z,13.10
2018-12-10T10:56:34.918Z,12.00
2018-12-10T10:59:03.326Z,10.90
2018-12-10T11:01:37.119Z,10.10
2018-12-10T11:04:05.592Z,9.50
2018-12-10T11:06:34.017Z,9.10
2018-12-10T11:09:02.509Z,8.70
2018-12-10T11:11:30.937Z,8.40
2018-12-10T11:13:59.367Z,8.20
2018-12-10T11:16:27.755Z,8.00
2018-12-10T11:18:56.651Z,8.00
2018-12-10T11:21:25.072Z,7.80
2018-12-10T11:23:53.513Z,7.70
2018-12-10T11:26:21.925Z,7.50
2018-12-10T11:28:50.527Z,7.30
2018-12-10T11:31:19.100Z,7.20
2018-12-10T11:33:47.579Z,7.40
2018-12-10T11:36:16.373Z,7.80
2018-12-10T11:38:44.813Z,8.00
2018-12-10T11:41:13.255Z,8.20
2018-12-10T11:43:41.658Z,8.80
2018-12-10T11:46:10.100Z,9.00
2018-12-10T11:48:38.523Z,8.80
2018-12-10T11:51:07.198Z,8.30
2018-12-10T11:53:35.715Z,7.90
2018-12-10T11:56:04.138Z,7.80
2018-12-10T11:58:32.543Z,7.80
2018-12-10T12:01:00.968Z,7.80
2018-12-10T12:03:29.374Z,7.80
2018-12-10T12:05:57.817Z,8.00
2018-12-10T12:08:26.281Z,8.00
2018-12-10T12:10:54.703Z,8.10
2018-12-10T12:13:23.135Z,8.00
2018-12-10T12:15:51.551Z,7.90
2018-12-10T12:18:19.953Z,7.60
2018-12-10T12:20:48.384Z,7.40
2018-12-10T12:23:16.794Z,7.20
2018-12-10T12:25:45.321Z,7.10
2018-12-10T12:28:13.766Z,7.20
2018-12-10T12:30:42.186Z,7.10
2018-12-10T12:33:10.617Z,7.10
2018-12-10T12:35:39.023Z,7.10
2018-12-10T12:38:07.455Z,7.10
2018-12-10T12:40:35.869Z,7.00
2018-12-10T12:43:08.541Z,6.90
2018-12-10T12:45:34.748Z,7.00
2018-12-10T12:48:03.187Z,7.10
2018-12-10T12:50:31.607Z,7.10
2018-12-10T12:53:00.019Z,7.10
2018-12-10T12:55:28.430Z,7.10
2018-12-10T12:57:56.891Z,7.00
2018-12-10T13:00:27.269Z,7.00
2018-12-10T13:02:55.730Z,6.90
2018-12-10T13:05:24.156Z,6.90
2018-12-10T13:07:52.559Z,6.80
2018-12-10T13:10:20.991Z,6.90
2018-12-10T13:12:49.504Z,6.90
2018-12-10T13:15:18.056Z,7.00
2018-12-10T13:17:46.489Z,7.00
2018-12-10T13:20:14.931Z,7.00
2018-12-10T13:22:47.371Z,7.10
2018-12-10T13:25:13.785Z,7.10
2018-12-10T13:27:42.197Z,7.20
2018-12-10T13:30:10.895Z,7.20
2018-12-10T13:32:39.323Z,7.20
2018-12-10T13:35:07.854Z,7.10
2018-12-10T13:37:36.262Z,7.20
2018-12-10T13:40:05.289Z,7.10
2018-12-10T13:42:33.761Z,7.10
2018-12-10T13:45:02.244Z,7.10
2018-12-10T13:47:30.708Z,7.20
2018-12-10T13:49:59.171Z,7.70
2018-12-10T13:52:27.644Z,8.00
2018-12-10T13:54:56.094Z,8.20
2018-12-10T13:57:24.555Z,8.30
2018-12-10T13:59:52.973Z,8.70
2018-12-10T14:02:21.392Z,8.70
2018-12-10T14:04:55.185Z,8.80
2018-12-10T14:07:23.644Z,9.00
2018-12-10T14:09:52.087Z,9.00
2018-12-10T14:12:20.556Z,9.20
2018-12-10T14:14:49.101Z,9.10
2018-12-10T14:17:17.611Z,9.10
2018-12-10T14:19:46.073Z,9.10
2018-12-10T14:22:14.515Z,9.40
2018-12-10T14:24:42.948Z,9.20
2018-12-10T14:27:11.416Z,9.30
2018-12-10T14:29:39.863Z,9.20
2018-12-10T14:32:08.530Z,9.30
2018-12-10T14:34:36.944Z,9.10
2018-12-10T14:37:05.499Z,8.50
2018-12-10T14:39:33.925Z,8.10
2018-12-10T14:42:02.487Z,7.80
2018-12-10T14:44:30.949Z,7.60
2018-12-10T14:46:59.372Z,7.40
2018-12-10T14:49:27.787Z,7.30
2018-12-10T14:51:56.246Z,7.20
2018-12-10T14:54:24.671Z,7.00
2018-12-10T14:56:53.126Z,7.30
2018-12-10T14:59:21.535Z,7.50
2018-12-10T15:01:49.980Z,7.30
2018-12-10T15:04:18.413Z,7.20
2018-12-10T15:06:46.892Z,7.10
2018-12-10T15:09:15.321Z,7.00
2018-12-10T15:11:43.774Z,6.90
2018-12-10T15:14:12.204Z,6.80
2018-12-10T15:16:40.627Z,6.60
2018-12-10T15:19:09.108Z,6.60
2018-12-10T15:21:37.619Z,6.50
2018-12-10T15:24:06.389Z,6.40
2018-12-10T15:26:34.923Z,6.40
2018-12-10T15:29:03.356Z,6.40
2018-12-10T15:31:31.857Z,6.30
2018-12-10T15:34:00.287Z,6.20
2018-12-10T15:36:28.719Z,6.10
2018-12-10T15:38:57.157Z,6.10
2018-12-10T15:41:25.583Z,6.00
2018-12-10T15:43:54.019Z,5.90
2018-12-10T15:46:22.446Z,5.90
2018-12-10T15:48:51.320Z,5.90
2018-12-10T15:51:19.733Z,5.90
2018-12-10T15:53:48.183Z,5.90
2018-12-10T15:56:16.599Z,6.00
2018-12-10T15:58:45.012Z,6.10
2018-12-10T16:01:13.459Z,6.10
2018-12-10T16:03:41.904Z,6.20
2018-12-10T16:06:10.310Z,6.30
2018-12-10T16:08:39.456Z,6.30
2018-12-10T16:11:07.903Z,6.30
2018-12-10T16:13:36.348Z,6.30
2018-12-10T16:16:04.809Z,6.20
2018-12-10T16:18:33.220Z,6.10
2018-12-10T16:21:01.668Z,6.00
2018-12-10T16:23:30.084Z,5.90
2018-12-10T16:25:58.531Z,5.90
2018-12-10T16:28:26.983Z,5.80
2018-12-10T16:30:56.337Z,5.80
2018-12-10T16:33:24.734Z,5.80
2018-12-10T16:35:53.436Z,5.80
2018-12-10T16:38:21.896Z,5.70
2018-12-10T16:40:50.329Z,5.60
2018-12-10T16:43:18.803Z,5.60
2018-12-10T16:45:47.406Z,5.60
2018-12-10T16:48:15.820Z,5.60
2018-12-10T16:50:44.245Z,5.60
2018-12-10T16:53:12.634Z,5.60
2018-12-10T16:55:41.053Z,5.60
2018-12-10T16:58:09.487Z,5.50
2018-12-10T17:00:37.917Z,5.50
2018-12-10T17:03:06.356Z,5.50
2018-12-10T17:05:34.777Z,5.40
2018-12-10T17:08:03.257Z,5.40
2018-12-10T17:10:31.717Z,5.40
2018-12-10T17:13:00.156Z,5.30
2018-12-10T17:15:28.614Z,5.40
2018-12-10T17:17:57.364Z,5.40
2018-12-10T17:20:27.662Z,5.40
2018-12-10T17:22:56.082Z,5.40
2018-12-10T17:25:24.579Z,5.40
2018-12-10T17:27:53.087Z,5.40
2018-12-10T17:30:21.521Z,5.40
2018-12-10T17:32:50.117Z,5.40
2018-12-10T17:35:18.533Z,5.40
2018-12-10T17:37:46.966Z,5.40
2018-12-10T17:40:15.369Z,5.40
2018-12-10T17:42:43.793Z,5.40
2018-12-10T17:45:12.216Z,5.40
2018-12-10T17:47:40.891Z,5.40
2018-12-10T17:50:11.276Z,5.30
2018-12-10T17:52:39.692Z,5.30
2018-12-10T17:55:08.811Z,5.30
2018-12-10T17:57:37.247Z,5.30
2018-12-10T18:00:08.397Z,5.30
2018-12-10T18:02:37.057Z,5.30
2018-12-10T18:05:05.844Z,5.30
2018-12-10T18:07:34.323Z,5.20
2018-12-10T18:10:02.772Z,5.30
2018-12-10T18:12:38.043Z,5.20
2018-12-10T18:15:07.472Z,5.20
2018-12-10T18:17:35.885Z,5.20
2018-12-10T18:20:05.466Z,5.40
2018-12-10T18:22:33.867Z,5.50
2018-12-10T18:25:02.416Z,5.50
2018-12-10T18:27:30.837Z,5.50
2018-12-10T18:30:00.124Z,5.40
2018-12-10T18:32:28.630Z,5.40
2018-12-10T18:34:57.067Z,5.30
2018-12-10T18:37:25.492Z,5.30
2018-12-10T18:39:53.900Z,5.20
2018-12-10T18:42:22.307Z,5.20
2018-12-10T18:44:50.773Z,5.10
2018-12-10T18:47:19.207Z,5.10
2018-12-10T18:49:47.642Z,5.00
2018-12-10T18:52:16.065Z,5.00
2018-12-10T18:54:44.490Z,4.90
2018-12-10T18:57:12.904Z,4.90
2018-12-10T18:59:41.357Z,4.90
2018-12-10T19:02:09.831Z,4.90
2018-12-10T19:04:38.302Z,4.90
2018-12-10T19:07:06.735Z,4.80
2018-12-10T19:09:35.149Z,4.80
2018-12-10T19:12:03.689Z,4.90
2018-12-10T19:14:32.119Z,4.90
2018-12-10T19:17:00.553Z,4.90
2018-12-10T19:19:29.047Z,4.90
2018-12-10T19:21:57.503Z,4.80
2018-12-10T19:24:26.016Z,4.80
2018-12-10T19:26:54.458Z,4.70
2018-12-10T19:29:23.007Z,4.70
2018-12-10T19:31:51.423Z,4.70
2018-12-10T19:34:19.860Z,4.70
2018-12-10T19:36:48.303Z,4.70
2018-12-10T19:39:16.757Z,4.70
2018-12-10T19:41:45.182Z,4.60
2018-12-10T19:44:13.663Z,4.50
2018-12-10T19:46:42.538Z,4.60
2018-12-10T19:49:10.978Z,4.60
2018-12-10T19:51:39.441Z,4.50
2018-12-10T19:54:07.977Z,4.50
2018-12-10T19:56:36.423Z,4.60
2018-12-10T19:59:04.875Z,4.60
2018-12-10T20:01:33.343Z,5.00
2018-12-10T20:04:01.910Z,5.60
2018-12-10T20:06:33.168Z,6.30
2018-12-10T20:09:01.596Z,6.80
2018-12-10T20:11:30.038Z,7.00
2018-12-10T20:13:58.495Z,7.00
2018-12-10T20:30:27.105Z,5.20
2018-12-10T20:32:55.563Z,5.20
2018-12-10T20:35:24.128Z,5.30
2018-12-10T20:37:52.625Z,5.30
2018-12-10T20:40:21.088Z,5.40
2018-12-10T20:42:49.521Z,5.40
2018-12-10T20:45:17.939Z,5.40
2018-12-10T20:47:46.456Z,5.40
2018-12-10T20:50:14.906Z,5.40
2018-12-10T20:52:43.451Z,5.40
2018-12-10T20:55:12.005Z,5.50
2018-12-10T20:57:41.700Z,5.50
2018-12-10T21:00:10.675Z,5.50
2018-12-10T21:02:39.215Z,5.50
2018-12-10T21:05:07.876Z,5.60
2018-12-10T21:07:36.403Z,5.60
2018-12-10T21:10:05.416Z,5.60
2018-12-10T21:12:33.864Z,5.60
2018-12-10T21:15:02.807Z,5.60
2018-12-10T21:17:31.295Z,5.60
2018-12-10T21:19:59.850Z,5.50
2018-12-10T21:22:28.329Z,5.50
2018-12-10T21:24:56.838Z,5.50
2018-12-10T21:27:25.443Z,5.50
2018-12-10T21:29:54.018Z,5.60
2018-12-10T21:32:22.580Z,5.50
2018-12-10T21:34:51.200Z,5.50
2018-12-10T21:37:19.692Z,5.50
2018-12-10T21:39:48.144Z,5.60
2018-12-10T21:42:16.623Z,5.60
2018-12-10T21:44:45.160Z,5.50
2018-12-10T21:47:13.596Z,5.60
2018-12-10T21:49:42.105Z,5.60
2018-12-10T21:52:10.650Z,5.60
2018-12-10T21:54:39.157Z,5.60
2018-12-10T21:57:07.573Z,5.60
2018-12-10T21:59:36.035Z,5.60
2018-12-10T22:02:04.828Z,5.60
2018-12-10T22:04:33.378Z,5.60
2018-12-10T22:07:01.883Z,5.60
2018-12-10T22:09:30.453Z,5.60
2018-12-10T22:11:59.340Z,5.60
2018-12-10T22:14:27.883Z,5.60
2018-12-10T22:16:56.307Z,5.60
2018-12-10T22:19:24.820Z,5.70
2018-12-10T22:21:53.303Z,5.70
2018-12-10T22:24:21.845Z,5.70
2018-12-10T22:26:50.319Z,5.70
2018-12-10T22:29:18.743Z,5.70
2018-12-10T22:31:47.199Z,5.70
2018-12-10T22:34:15.740Z,5.70
2018-12-10T22:36:44.204Z,5.70
2018-12-10T22:39:12.617Z,5.70
2018-12-10T22:41:41.072Z,5.80
2018-12-10T22:44:09.530Z,5.80
2018-12-10T22:46:38.306Z,5.70
2018-12-10T22:49:06.736Z,5.70
2018-12-10T22:51:35.280Z,5.70
2018-12-10T22:54:03.712Z,5.60
2018-12-10T22:56:32.320Z,5.60
2018-12-10T22:59:00.745Z,5.50
2018-12-10T23:01:29.149Z,5.50
2018-12-10T23:03:57.604Z,5.50
2018-12-10T23:06:26.028Z,5.50
2018-12-10T23:08:54.470Z,5.50
2018-12-10T23:11:22.911Z,5.50
2018-12-10T23:13:51.393Z,5.50
2018-12-10T23:16:19.875Z,5.50
2018-12-10T23:18:48.332Z,5.60
2018-12-10T23:21:16.736Z,5.60
2018-12-10T23:23:45.179Z,5.60
2018-12-10T23:26:13.612Z,5.70
2018-12-10T23:28:42.045Z,5.70
2018-12-10T23:31:10.469Z,5.70
2018-12-10T23:33:38.892Z,5.80
2018-12-10T23:36:07.327Z,5.70
2018-12-10T23:38:35.728Z,5.80
2018-12-10T23:41:04.149Z,5.80
2018-12-10T23:43:33.759Z,5.80
2018-12-10T23:46:02.301Z,5.80
2018-12-10T23:48:30.772Z,5.80
2018-12-10T23:50:59.196Z,5.80
2018-12-10T23:53:27.617Z,5.70
2018-12-10T23:55:56.116Z,5.80
2018-12-10T23:58:24.595Z,5.80
